Time;durP1;ratioP1;P1;durP2;ratioP2;P2;SDS_P1;SDS_P2;PMS_P1;PMS_P2;Temp;Humidity;BMP_temperature;BMP_pressure;BME280_temperature;BME280_humidity;BME280_pressure;Samples;Min_cycle;Max_cycle;Signal;HPM_P1;HPM_P2
2022/05/09 00:00:18;;;;;;;8.40;3.30;;;11.00;99.90;;;;;;5034640;28;20451;-79
2022/05/09 00:02:45;;;;;;;5.50;2.67;;;11.00;99.90;;;;;;5035412;28;20464;-79
2022/05/09 00:05:15;;;;;;;6.93;2.83;;;11.00;99.90;;;;;;5034697;28;20866;-78
2022/05/09 00:07:45;;;;;;;4.87;3.13;;;11.00;99.90;;;;;;5034937;28;20457;-79
2022/05/09 00:10:13;;;;;;;4.43;3.17;;;10.90;99.90;;;;;;5034070;28;20847;-78
2022/05/09 00:12:40;;;;;;;6.70;2.90;;;10.90;99.90;;;;;;5034507;28;20460;-79
2022/05/09 00:15:08;;;;;;;4.60;2.43;;;10.90;99.90;;;;;;5034429;28;20453;-79
2022/05/09 00:17:35;;;;;;;6.20;2.93;;;10.80;99.90;;;;;;5035016;28;20459;-78
2022/05/09 00:20:02;;;;;;;5.73;2.97;;;10.80;99.90;;;;;;5035167;28;20462;-77
2022/05/09 00:22:28;;;;;;;6.47;2.73;;;10.70;99.90;;;;;;5035042;28;20461;-79
2022/05/09 00:25:00;;;;;;;6.50;2.83;;;10.70;99.90;;;;;;5034978;28;20531;-78
2022/05/09 00:27:27;;;;;;;5.80;2.77;;;10.60;99.90;;;;;;5035440;28;20461;-79
2022/05/09 00:29:53;;;;;;;8.30;2.93;;;10.60;99.90;;;;;;5035105;28;20459;-78
2022/05/09 00:32:20;;;;;;;6.30;2.47;;;10.50;99.90;;;;;;5034689;28;20993;-79
2022/05/09 00:34:47;;;;;;;6.90;2.57;;;10.50;99.90;;;;;;5035128;28;20833;-78
2022/05/09 00:37:14;;;;;;;6.10;2.63;;;10.50;99.90;;;;;;5034253;28;20544;-79
2022/05/09 00:39:40;;;;;;;5.77;2.83;;;10.40;99.90;;;;;;5034381;28;21020;-79
2022/05/09 00:42:10;;;;;;;4.83;2.80;;;10.40;99.90;;;;;;5034400;28;20471;-79
2022/05/09 00:44:38;;;;;;;5.10;2.80;;;10.40;99.90;;;;;;5035171;28;20563;-78
2022/05/09 00:47:08;;;;;;;8.97;2.33;;;10.40;99.90;;;;;;5033542;28;20969;-78
2022/05/09 00:49:40;;;;;;;5.03;2.70;;;10.30;99.90;;;;;;5034212;28;20456;-79
2022/05/09 00:52:13;;;;;;;6.80;2.50;;;10.30;99.90;;;;;;5034381;28;20560;-79
2022/05/09 00:54:43;;;;;;;5.77;3.10;;;10.20;99.90;;;;;;5034705;28;20457;-78
2022/05/09 00:57:17;;;;;;;5.10;3.17;;;10.20;99.90;;;;;;5035261;28;20464;-78
2022/05/09 00:59:44;;;;;;;7.50;3.60;;;10.20;99.90;;;;;;5034082;28;20454;-79
2022/05/09 01:02:14;;;;;;;7.53;2.97;;;10.20;99.90;;;;;;5033853;28;20476;-79
2022/05/09 01:04:47;;;;;;;7.40;3.70;;;10.20;99.90;;;;;;5031517;28;20457;-79
2022/05/09 01:07:14;;;;;;;4.93;3.20;;;10.10;99.90;;;;;;5034743;28;20463;-79
2022/05/09 01:09:40;;;;;;;6.50;4.13;;;10.10;99.90;;;;;;5033687;28;20463;-79
2022/05/09 01:12:13;;;;;;;5.43;3.20;;;10.10;99.90;;;;;;5033366;28;20480;-79
2022/05/09 01:14:40;;;;;;;7.90;3.70;;;10.10;99.90;;;;;;5034225;28;20964;-78
2022/05/09 01:17:09;;;;;;;5.47;2.87;;;10.00;99.90;;;;;;5031419;28;20475;-78
2022/05/09 01:19:37;;;;;;;6.40;3.30;;;10.00;99.90;;;;;;5037187;28;20463;-79
2022/05/09 01:22:19;;;;;;;7.13;3.50;;;10.00;99.90;;;;;;5021799;28;21000;-79
2022/05/09 01:24:46;;;;;;;5.43;3.60;;;10.00;99.90;;;;;;5022210;28;20448;-79
2022/05/09 01:27:12;;;;;;;5.60;3.37;;;10.10;99.90;;;;;;5021546;28;20457;-79
2022/05/09 01:29:47;;;;;;;8.23;3.30;;;10.10;99.90;;;;;;5040955;28;20459;-80
2022/05/09 01:32:16;;;;;;;7.43;2.90;;;10.20;99.90;;;;;;5041199;28;20926;-79
2022/05/09 01:34:49;;;;;;;8.57;4.00;;;10.20;99.90;;;;;;5024943;28;21032;-79
2022/05/09 01:37:22;;;;;;;5.77;3.40;;;10.20;99.90;;;;;;5042269;28;20444;-78
2022/05/09 01:39:48;;;;;;;6.77;3.60;;;10.10;99.90;;;;;;5039860;28;20548;-78
2022/05/09 01:42:15;;;;;;;6.20;3.70;;;10.10;99.90;;;;;;5039974;28;20469;-80
2022/05/09 01:44:43;;;;;;;7.03;3.80;;;10.10;99.90;;;;;;5040606;28;20457;-79
2022/05/09 01:49:54;;;;;;;6.97;3.70;;;10.00;99.90;;;;;;5039048;28;20452;-79
2022/05/09 01:52:22;;;;;;;7.60;3.70;;;10.10;99.90;;;;;;5040443;28;20861;-78
2022/05/09 01:54:49;;;;;;;7.73;3.57;;;10.20;99.90;;;;;;5039580;28;20899;-78
2022/05/09 01:57:17;;;;;;;9.33;3.20;;;10.20;99.90;;;;;;5040596;28;20443;-78
2022/05/09 01:59:45;;;;;;;6.00;3.80;;;10.30;99.90;;;;;;5038934;28;20448;-80
2022/05/09 02:02:14;;;;;;;5.97;3.27;;;10.30;99.90;;;;;;5040370;28;20483;-79
2022/05/09 02:04:42;;;;;;;8.10;3.33;;;10.20;99.90;;;;;;5038898;28;20462;-79
2022/05/09 02:07:09;;;;;;;4.70;3.17;;;10.20;99.90;;;;;;5040203;28;21099;-78
2022/05/09 02:09:40;;;;;;;6.10;3.30;;;10.20;99.90;;;;;;5039059;28;20517;-78
2022/05/09 02:12:08;;;;;;;8.17;3.47;;;10.10;99.90;;;;;;5039528;28;20476;-79
2022/05/09 02:14:35;;;;;;;8.67;3.90;;;10.10;99.90;;;;;;5039687;28;20462;-79
2022/05/09 02:17:03;;;;;;;7.13;3.10;;;10.00;99.90;;;;;;5039698;28;20458;-78
2022/05/09 02:19:30;;;;;;;5.70;3.80;;;10.00;99.90;;;;;;5038830;28;20544;-79
2022/05/09 02:21:57;;;;;;;8.60;3.03;;;10.00;99.90;;;;;;5039114;28;20481;-78
2022/05/09 02:24:24;;;;;;;9.77;3.97;;;9.90;99.90;;;;;;5039461;28;20999;-78
2022/05/09 02:26:52;;;;;;;7.17;3.90;;;9.90;99.90;;;;;;5039289;28;20491;-78
2022/05/09 02:29:19;;;;;;;6.90;3.50;;;9.80;99.90;;;;;;5039042;28;20546;-78
2022/05/09 02:31:46;;;;;;;8.23;3.30;;;9.80;99.90;;;;;;5037380;28;20496;-79
2022/05/09 02:34:13;;;;;;;8.47;4.20;;;9.70;99.90;;;;;;5035874;28;20967;-78
2022/05/09 02:36:40;;;;;;;9.73;3.67;;;9.70;99.90;;;;;;5035935;28;20456;-79
2022/05/09 02:39:07;;;;;;;9.30;3.33;;;9.60;99.90;;;;;;5035793;28;20460;-79
2022/05/09 02:41:34;;;;;;;5.70;3.67;;;9.60;99.90;;;;;;5035701;28;20475;-78
2022/05/09 02:44:03;;;;;;;7.70;4.00;;;9.50;99.90;;;;;;5035643;28;20463;-80
2022/05/09 02:46:30;;;;;;;5.53;4.10;;;9.50;99.90;;;;;;5035770;28;20504;-78
2022/05/09 02:48:59;;;;;;;9.70;4.60;;;9.50;99.90;;;;;;5035631;28;20451;-79
2022/05/09 02:51:26;;;;;;;5.83;3.67;;;9.40;99.90;;;;;;5035283;28;20484;-79
2022/05/09 02:53:55;;;;;;;5.73;3.50;;;9.40;99.90;;;;;;5035532;28;20460;-78
2022/05/09 02:56:21;;;;;;;8.27;4.63;;;9.40;99.90;;;;;;5035940;28;20474;-77
2022/05/09 02:58:48;;;;;;;9.73;4.10;;;9.30;99.90;;;;;;5035164;28;20467;-79
2022/05/09 03:01:16;;;;;;;8.00;3.77;;;9.30;99.90;;;;;;5035206;28;20481;-78
2022/05/09 03:06:28;;;;;;;6.50;3.97;;;9.20;99.90;;;;;;5035452;28;20490;-78
2022/05/09 03:08:55;;;;;;;10.00;4.70;;;9.20;99.90;;;;;;5035251;28;20453;-77
2022/05/09 03:11:22;;;;;;;7.70;3.90;;;9.20;99.90;;;;;;5034637;28;20479;-78
2022/05/09 03:13:49;;;;;;;9.10;3.93;;;9.20;99.90;;;;;;5034855;28;20451;-78
2022/05/09 03:16:17;;;;;;;8.53;4.27;;;9.10;99.90;;;;;;5036164;28;20466;-79
2022/05/09 03:18:44;;;;;;;10.00;4.27;;;9.10;99.90;;;;;;5035340;28;20450;-78
2022/05/09 03:21:11;;;;;;;8.50;4.57;;;9.10;99.90;;;;;;5036091;28;20487;-79
2022/05/09 03:23:38;;;;;;;4.97;3.77;;;9.10;99.90;;;;;;5035326;28;20541;-79
2022/05/09 03:26:05;;;;;;;6.97;4.33;;;9.10;99.90;;;;;;5036169;28;20486;-77
2022/05/09 03:28:32;;;;;;;6.80;3.70;;;9.10;99.90;;;;;;5035839;28;20458;-78
2022/05/09 03:31:00;;;;;;;7.57;4.07;;;9.20;99.90;;;;;;5035086;28;20542;-78
2022/05/09 03:33:28;;;;;;;9.60;4.85;;;9.20;99.90;;;;;;5034504;28;20504;-79
2022/05/09 03:35:56;;;;;;;7.00;3.37;;;9.20;99.90;;;;;;5033887;28;20207;-78
2022/05/09 03:38:23;;;;;;;9.27;3.80;;;9.30;99.90;;;;;;5034264;28;20463;-76
2022/05/09 03:40:50;;;;;;;9.43;4.80;;;9.30;99.90;;;;;;5034024;28;20540;-80
2022/05/09 03:43:17;;;;;;;5.00;3.47;;;9.30;99.90;;;;;;5013806;28;20494;-76
2022/05/09 03:45:46;;;;;;;6.70;3.70;;;9.30;99.90;;;;;;5019437;28;20490;-79
2022/05/09 03:48:13;;;;;;;9.40;4.00;;;9.30;99.90;;;;;;5033994;28;20533;-76
2022/05/09 03:50:41;;;;;;;7.87;3.53;;;9.40;99.90;;;;;;5034244;28;20468;-77
2022/05/09 03:53:08;;;;;;;7.57;3.60;;;9.40;99.90;;;;;;5033835;28;21945;-79
2022/05/09 03:55:35;;;;;;;9.93;4.07;;;9.50;99.90;;;;;;5032739;28;20467;-79
2022/05/09 03:58:03;;;;;;;7.53;3.63;;;9.40;99.90;;;;;;5034505;28;20452;-80
2022/05/09 04:00:33;;;;;;;8.97;3.90;;;9.50;99.90;;;;;;5034410;28;20501;-80
2022/05/09 04:03:00;;;;;;;9.43;3.90;;;9.60;99.90;;;;;;5034301;28;20484;-79
2022/05/09 04:05:30;;;;;;;12.30;4.10;;;9.60;99.90;;;;;;5034287;28;20457;-81
2022/05/09 04:08:00;;;;;;;10.30;5.30;;;9.70;99.90;;;;;;5031011;28;20448;-76
2022/05/09 04:10:30;;;;;;;15.87;4.00;;;9.70;99.90;;;;;;5034929;28;20853;-77
2022/05/09 04:12:56;;;;;;;6.27;3.23;;;9.70;99.90;;;;;;5036195;28;20956;-78
2022/05/09 04:18:08;;;;;;;8.60;3.93;;;9.80;99.90;;;;;;5036329;28;20439;-77
2022/05/09 04:20:36;;;;;;;7.13;3.33;;;9.80;99.90;;;;;;5034507;28;20484;-78
2022/05/09 04:23:05;;;;;;;7.17;3.90;;;9.80;99.90;;;;;;5036641;28;20456;-78
2022/05/09 04:25:32;;;;;;;5.10;3.70;;;9.80;99.90;;;;;;5035278;28;20457;-78
2022/05/09 04:27:59;;;;;;;8.00;4.10;;;9.80;99.90;;;;;;5036453;28;20844;-77
2022/05/09 04:30:26;;;;;;;9.77;3.70;;;9.90;99.90;;;;;;5035243;28;20502;-77
2022/05/09 04:32:53;;;;;;;9.60;4.70;;;9.90;99.90;;;;;;5036455;28;20466;-78
2022/05/09 04:35:21;;;;;;;7.60;4.07;;;9.90;99.90;;;;;;5036144;28;20456;-77
2022/05/09 04:37:49;;;;;;;7.80;3.80;;;10.00;99.90;;;;;;5036910;28;20514;-77
2022/05/09 04:40:19;;;;;;;8.47;4.37;;;10.00;99.90;;;;;;5035113;28;20460;-78
2022/05/09 04:42:46;;;;;;;3.63;2.10;;;10.10;99.90;;;;;;5029781;28;20456;-79
2022/05/09 04:45:15;;;;;;;5.70;2.47;;;11.90;99.90;;;;;;5028856;28;20968;-78
2022/05/09 04:47:43;;;;;;;7.33;3.33;;;12.70;99.90;;;;;;5023543;28;20486;-78
2022/05/09 04:50:13;;;;;;;5.10;3.00;;;13.20;99.90;;;;;;5029929;28;20465;-78
2022/05/09 04:52:40;;;;;;;6.57;4.07;;;13.50;99.90;;;;;;5031172;28;20445;-78
2022/05/09 04:55:08;;;;;;;8.43;3.87;;;13.20;99.90;;;;;;5031861;28;20977;-77
2022/05/09 04:57:36;;;;;;;9.13;4.13;;;12.90;99.90;;;;;;5033647;28;20817;-77
2022/05/09 05:00:05;;;;;;;7.40;4.30;;;12.60;99.90;;;;;;5029052;28;20519;-77
2022/05/09 05:02:31;;;;;;;11.13;4.10;;;12.30;99.90;;;;;;5034100;28;20527;-78
2022/05/09 05:04:58;;;;;;;8.13;4.73;;;12.10;99.90;;;;;;5033332;28;20466;-78
2022/05/09 05:07:25;;;;;;;13.10;4.80;;;12.00;99.90;;;;;;5032880;28;20485;-77
2022/05/09 05:09:52;;;;;;;7.17;3.90;;;11.90;99.90;;;;;;5033332;28;20946;-78
2022/05/09 05:12:19;;;;;;;11.17;4.97;;;11.70;99.90;;;;;;5032317;28;20551;-78
2022/05/09 05:14:47;;;;;;;10.23;4.17;;;11.70;99.90;;;;;;5031868;28;20500;-78
2022/05/09 05:17:14;;;;;;;8.03;4.47;;;11.70;99.90;;;;;;5032555;28;20518;-77
2022/05/09 05:19:42;;;;;;;14.20;6.03;;;11.70;99.90;;;;;;5031598;28;20545;-77
2022/05/09 05:22:10;;;;;;;7.60;4.73;;;11.70;99.90;;;;;;5031409;28;20498;-79
2022/05/09 05:24:39;;;;;;;10.43;4.33;;;11.60;99.90;;;;;;5031952;28;20451;-80
2022/05/09 05:27:06;;;;;;;11.63;4.93;;;11.70;99.90;;;;;;5031260;28;20525;-78
2022/05/09 05:29:33;;;;;;;8.70;5.73;;;11.60;99.90;;;;;;5026307;28;21184;-79
2022/05/09 05:32:02;;;;;;;6.30;4.30;;;11.70;99.90;;;;;;5031790;28;20481;-78
2022/05/09 05:34:29;;;;;;;9.53;5.10;;;11.70;99.90;;;;;;5031479;28;20465;-79
2022/05/09 05:36:55;;;;;;;14.40;5.60;;;11.70;99.90;;;;;;5031865;28;20466;-79
2022/05/09 05:39:22;;;;;;;7.47;4.90;;;11.60;99.90;;;;;;5033087;28;20468;-78
2022/05/09 05:41:49;;;;;;;11.60;5.60;;;11.60;99.90;;;;;;5031197;28;20472;-77
2022/05/09 05:44:16;;;;;;;12.33;6.20;;;11.60;99.90;;;;;;5030505;28;20461;-78
2022/05/09 05:46:43;;;;;;;7.27;4.70;;;11.70;99.90;;;;;;5031044;28;20495;-78
2022/05/09 05:49:11;;;;;;;7.20;4.23;;;11.70;99.90;;;;;;5029795;28;20484;-79
2022/05/09 05:51:38;;;;;;;10.20;4.80;;;11.70;99.90;;;;;;5032884;28;20478;-79
2022/05/09 05:54:05;;;;;;;10.53;4.73;;;11.80;99.90;;;;;;5031751;28;20464;-79
2022/05/09 05:56:33;;;;;;;15.00;5.80;;;11.80;99.90;;;;;;5031518;28;20450;-79
2022/05/09 05:59:00;;;;;;;9.50;5.07;;;11.80;99.90;;;;;;5032322;28;20975;-79
2022/05/09 06:01:27;;;;;;;10.67;4.83;;;12.00;99.90;;;;;;5032218;28;20475;-79
2022/05/09 06:03:54;;;;;;;8.60;4.50;;;12.00;99.90;;;;;;5033118;28;20465;-81
2022/05/09 06:06:22;;;;;;;8.40;5.13;;;12.10;99.90;;;;;;5034714;28;20500;-79
2022/05/09 06:08:48;;;;;;;8.90;4.73;;;12.20;99.90;;;;;;5034824;28;20468;-79
2022/05/09 06:11:18;;;;;;;9.23;5.33;;;12.30;99.90;;;;;;5035196;28;20491;-80
2022/05/09 06:13:44;;;;;;;16.07;5.27;;;12.40;99.90;;;;;;5033095;28;20543;-79
2022/05/09 06:16:11;;;;;;;11.10;5.57;;;12.50;99.90;;;;;;5032977;28;21077;-79
2022/05/09 06:18:38;;;;;;;13.60;5.90;;;12.60;99.90;;;;;;5035260;28;20472;-80
2022/05/09 06:21:05;;;;;;;13.87;6.10;;;12.60;99.90;;;;;;5035374;28;20481;-80
2022/05/09 06:23:34;;;;;;;9.67;4.90;;;12.70;99.90;;;;;;5036072;28;20877;-79
2022/05/09 06:26:01;;;;;;;8.13;5.13;;;12.80;99.90;;;;;;5033723;28;20953;-78
2022/05/09 06:28:28;;;;;;;9.10;4.73;;;13.00;99.90;;;;;;5033838;28;20863;-78
2022/05/09 06:30:54;;;;;;;14.87;5.50;;;13.00;99.90;;;;;;5034132;28;20468;-79
2022/05/09 06:33:23;;;;;;;10.90;5.70;;;13.10;99.90;;;;;;5035681;28;20892;-78
2022/05/09 06:35:51;;;;;;;9.97;4.83;;;13.30;99.90;;;;;;5034274;28;20947;-79
2022/05/09 06:38:19;;;;;;;14.27;5.20;;;13.40;99.90;;;;;;5034407;28;20443;-79
2022/05/09 06:40:47;;;;;;;9.33;4.80;;;13.50;99.90;;;;;;5032958;28;20559;-78
2022/05/09 06:43:15;;;;;;;13.00;5.43;;;13.50;99.90;;;;;;5033737;28;20448;-79
2022/05/09 06:45:42;;;;;;;9.03;5.43;;;13.60;99.90;;;;;;5030604;28;20460;-80
2022/05/09 06:48:10;;;;;;;9.97;5.33;;;13.60;99.90;;;;;;5049612;28;20610;-79
2022/05/09 06:50:38;;;;;;;12.27;5.03;;;13.70;99.90;;;;;;5030621;28;20516;-79
2022/05/09 06:53:06;;;;;;;9.13;5.27;;;13.80;99.90;;;;;;5029631;28;20448;-79
2022/05/09 06:55:33;;;;;;;12.10;5.33;;;13.90;99.90;;;;;;5030119;28;20455;-79
2022/05/09 06:58:05;;;;;;;8.90;5.20;;;14.00;99.90;;;;;;5033760;28;20452;-77
2022/05/09 07:00:32;;;;;;;11.30;4.73;;;14.10;99.90;;;;;;5039960;28;20475;-80
2022/05/09 07:02:58;;;;;;;6.93;3.87;;;14.20;99.90;;;;;;5037526;28;20449;-77
2022/05/09 07:05:25;;;;;;;13.27;4.17;;;14.40;99.90;;;;;;5033018;28;20455;-77
2022/05/09 07:07:52;;;;;;;9.17;4.10;;;14.50;99.90;;;;;;5030913;28;20496;-77
2022/05/09 07:10:20;;;;;;;6.77;4.03;;;14.50;99.90;;;;;;5033819;28;20554;-78
2022/05/09 07:12:49;;;;;;;7.83;3.70;;;14.60;99.90;;;;;;5035442;28;20465;-77
2022/05/09 07:15:20;;;;;;;6.10;3.47;;;14.70;99.90;;;;;;5032622;28;20453;-77
2022/05/09 07:17:47;;;;;;;9.50;4.10;;;14.80;99.90;;;;;;5030285;28;20454;-78
2022/05/09 07:20:16;;;;;;;5.43;3.17;;;14.90;99.90;;;;;;5039604;28;20457;-77
2022/05/09 07:22:43;;;;;;;8.33;3.97;;;15.10;99.90;;;;;;5036921;28;20514;-77
2022/05/09 07:25:13;;;;;;;11.00;3.90;;;15.20;99.90;;;;;;5042239;28;20469;-78
2022/05/09 07:27:42;;;;;;;12.07;3.50;;;15.30;99.90;;;;;;5039456;28;20492;-78
2022/05/09 07:30:10;;;;;;;7.93;3.27;;;15.50;99.90;;;;;;5035427;28;20464;-78
2022/05/09 07:32:39;;;;;;;10.43;3.10;;;15.60;99.90;;;;;;5043865;28;20458;-79
2022/05/09 07:35:06;;;;;;;6.10;3.17;;;15.80;99.90;;;;;;5031701;28;20472;-78
2022/05/09 07:37:33;;;;;;;6.90;3.37;;;15.90;99.90;;;;;;5037598;28;20758;-78
2022/05/09 07:40:00;;;;;;;8.90;3.30;;;16.00;99.90;;;;;;5035412;28;20468;-79
2022/05/09 07:42:28;;;;;;;9.20;3.77;;;16.20;99.90;;;;;;5042994;28;20902;-79
2022/05/09 07:44:56;;;;;;;5.40;3.53;;;16.40;99.90;;;;;;5030104;28;20516;-79
2022/05/09 07:47:23;;;;;;;8.10;3.20;;;16.50;99.90;;;;;;5033164;28;20491;-79
2022/05/09 07:49:51;;;;;;;7.03;4.20;;;16.60;99.90;;;;;;5033453;28;20449;-79
2022/05/09 07:52:18;;;;;;;7.97;3.47;;;16.80;99.90;;;;;;5033596;28;20482;-79
2022/05/09 07:54:46;;;;;;;9.93;3.67;;;16.90;99.90;;;;;;5035053;28;20486;-79
2022/05/09 07:57:13;;;;;;;6.97;3.20;;;17.00;99.90;;;;;;5035816;28;20977;-80
2022/05/09 07:59:40;;;;;;;7.10;3.60;;;17.30;99.90;;;;;;5034694;28;20462;-80
2022/05/09 08:02:07;;;;;;;8.40;3.77;;;18.00;99.90;;;;;;5035644;28;20468;-80
2022/05/09 08:04:34;;;;;;;5.17;2.73;;;18.70;99.90;;;;;;5039674;28;20473;-79
2022/05/09 08:07:02;;;;;;;5.90;2.97;;;19.70;99.90;;;;;;5047026;28;20488;-79
2022/05/09 08:09:29;;;;;;;7.67;4.03;;;20.70;99.90;;;;;;5046196;28;21453;-79
2022/05/09 08:11:57;;;;;;;5.50;2.73;;;21.60;99.90;;;;;;5046798;28;20471;-79
2022/05/09 08:14:25;;;;;;;4.30;2.70;;;22.60;99.90;;;;;;5043425;28;20547;-80
2022/05/09 08:16:51;;;;;;;5.63;3.20;;;23.60;99.90;;;;;;5034460;28;20473;-79
2022/05/09 08:19:18;;;;;;;9.20;3.87;;;23.90;99.90;;;;;;5034773;28;20448;-81
2022/05/09 08:21:47;;;;;;;8.40;3.57;;;24.10;99.90;;;;;;5034654;28;20562;-80
2022/05/09 08:24:15;;;;;;;6.70;3.17;;;25.00;99.90;;;;;;5036030;28;20484;-80
2022/05/09 08:26:42;;;;;;;8.20;3.57;;;25.80;99.90;;;;;;5034214;28;20511;-78
2022/05/09 08:29:09;;;;;;;4.63;3.47;;;26.90;99.90;;;;;;5033629;28;20859;-80
2022/05/09 08:31:36;;;;;;;4.90;2.53;;;28.00;99.90;;;;;;5028102;28;20483;-81
2022/05/09 08:34:03;;;;;;;6.20;3.07;;;29.10;99.20;;;;;;5034884;28;20445;-79
2022/05/09 08:36:51;;;;;;;5.53;3.30;;;29.90;96.50;;;;;;5030576;28;20456;-80
2022/05/09 08:39:19;;;;;;;5.63;2.97;;;30.40;91.60;;;;;;5031729;28;20956;-80
2022/05/09 08:41:56;;;;;;;8.90;3.30;;;31.10;86.90;;;;;;5033460;28;20473;-79
2022/05/09 08:44:56;;;;;;;6.63;3.77;;;31.50;80.20;;;;;;5033278;28;20549;-80
2022/05/09 08:47:49;;;;;;;4.87;3.10;;;31.50;80.00;;;;;;5032308;28;20520;-79
2022/05/09 08:50:25;;;;;;;6.60;3.77;;;32.20;77.30;;;;;;5023784;28;20489;-79
2022/05/09 08:52:59;;;;;;;6.10;3.27;;;33.20;77.30;;;;;;5030804;28;21059;-80
2022/05/09 08:55:32;;;;;;;6.20;3.53;;;33.30;71.30;;;;;;5032779;28;20952;-78
2022/05/09 08:58:12;;;;;;;4.40;2.73;;;33.80;74.10;;;;;;5033746;28;20457;-78
2022/05/09 09:00:39;;;;;;;12.83;4.17;;;34.50;68.30;;;;;;5032728;28;20895;-78
2022/05/09 09:03:17;;;;;;;7.93;3.23;;;34.90;69.50;;;;;;5036118;28;20513;-77
2022/05/09 09:05:48;;;;;;;6.07;3.20;;;35.50;65.20;;;;;;5022264;28;20457;-80
2022/05/09 09:08:21;;;;;;;7.97;3.70;;;35.70;64.90;;;;;;5021695;28;20839;-79
2022/05/09 09:11:01;;;;;;;5.23;2.83;;;36.10;64.70;;;;;;5038607;28;20964;-79
2022/05/09 09:13:42;;;;;;;7.87;4.20;;;36.60;63.20;;;;;;5037070;28;20460;-78
2022/05/09 09:16:22;;;;;;;6.40;3.83;;;36.50;58.10;;;;;;5040354;28;20912;-78
2022/05/09 09:19:00;;;;;;;4.70;2.80;;;36.20;62.00;;;;;;5040683;28;20511;-78
2022/05/09 09:21:41;;;;;;;6.20;4.07;;;36.20;62.70;;;;;;5038832;28;20519;-79
2022/05/09 09:24:18;;;;;;;5.23;3.30;;;36.40;63.80;;;;;;5038434;28;20480;-79
2022/05/09 09:26:59;;;;;;;7.17;3.57;;;37.30;61.00;;;;;;5033716;28;20444;-80
2022/05/09 09:29:33;;;;;;;4.63;3.23;;;38.10;59.40;;;;;;5031835;28;20480;-80
2022/05/09 09:32:04;;;;;;;5.33;3.63;;;37.60;60.00;;;;;;5035672;28;20476;-79
2022/05/09 09:34:35;;;;;;;5.70;3.10;;;38.50;58.60;;;;;;5036785;28;20543;-80
2022/05/09 09:37:09;;;;;;;7.10;3.90;;;38.80;58.70;;;;;;5033814;28;20477;-79
2022/05/09 09:39:36;;;;;;;6.90;4.40;;;38.50;55.70;;;;;;5033878;28;20964;-77
2022/05/09 09:42:05;;;;;;;6.13;3.70;;;37.80;52.10;;;;;;5032767;28;20480;-78
2022/05/09 09:44:34;;;;;;;8.23;3.57;;;37.60;57.80;;;;;;5030906;28;20829;-82
2022/05/09 09:47:06;;;;;;;5.63;3.67;;;38.70;54.60;;;;;;5042536;28;20785;-82
2022/05/09 09:49:35;;;;;;;7.30;4.33;;;38.40;53.70;;;;;;5038665;28;20485;-83
2022/05/09 09:52:04;;;;;;;6.07;3.50;;;38.50;51.10;;;;;;5041405;28;21097;-82
2022/05/09 09:54:34;;;;;;;4.70;3.40;;;39.50;53.90;;;;;;5039231;28;20539;-82
2022/05/09 09:57:17;;;;;;;5.10;3.63;;;40.50;53.80;;;;;;5038914;28;20453;-83
2022/05/09 09:59:44;;;;;;;3.83;2.90;;;40.90;50.20;;;;;;5040401;28;20540;-81
2022/05/09 10:02:17;;;;;;;4.07;3.10;;;41.60;51.20;;;;;;5044245;28;20496;-82
2022/05/09 10:04:45;;;;;;;5.60;3.37;;;42.00;51.20;;;;;;5047767;28;20464;-78
2022/05/09 10:07:16;;;;;;;4.80;3.30;;;40.60;49.70;;;;;;5039447;28;20451;-79
2022/05/09 10:09:45;;;;;;;5.50;3.50;;;38.20;52.00;;;;;;5038699;28;20445;-78
2022/05/09 10:12:21;;;;;;;6.30;3.50;;;39.30;52.90;;;;;;5040604;28;20473;-77
2022/05/09 10:14:49;;;;;;;4.83;3.40;;;39.70;53.00;;;;;;5039114;28;20452;-79
2022/05/09 10:17:21;;;;;;;5.93;3.40;;;40.40;50.80;;;;;;5030363;28;20471;-78
2022/05/09 10:19:50;;;;;;;6.00;4.10;;;40.40;51.90;;;;;;5034558;28;20496;-77
2022/05/09 10:25:11;;;;;;;6.83;3.57;;;41.30;49.60;;;;;;5032291;28;20511;-77
2022/05/09 10:27:40;;;;;;;5.70;3.67;;;41.10;50.20;;;;;;5033585;28;20516;-78
2022/05/09 10:30:30;;;;;;;6.27;3.73;;;40.80;50.70;;;;;;5034941;28;20464;-77
2022/05/09 10:33:00;;;;;;;5.53;3.30;;;41.70;50.70;;;;;;5033912;28;20841;-76
2022/05/09 10:35:33;;;;;;;4.90;3.10;;;40.00;51.30;;;;;;5035798;28;20484;-78
2022/05/09 10:38:04;;;;;;;4.47;3.70;;;39.30;50.80;;;;;;5036152;28;20983;-78
2022/05/09 10:40:35;;;;;;;5.37;3.27;;;39.60;52.00;;;;;;5034300;28;20559;-77
2022/05/09 10:43:06;;;;;;;6.40;4.13;;;40.30;50.90;;;;;;5035170;28;20449;-79
2022/05/09 10:45:41;;;;;;;6.40;3.40;;;39.60;48.70;;;;;;5033521;28;21063;-76
2022/05/09 10:48:12;;;;;;;5.37;3.67;;;41.70;50.70;;;;;;5043532;28;21076;-78
2022/05/09 10:50:49;;;;;;;5.17;3.70;;;41.00;50.60;;;;;;5037204;28;20558;-78
2022/05/09 10:53:25;;;;;;;7.70;4.33;;;41.20;50.10;;;;;;5028874;28;20455;-77
2022/05/09 10:56:03;;;;;;;8.23;4.60;;;40.60;48.70;;;;;;5033822;28;20457;-78
2022/05/09 10:58:37;;;;;;;5.70;3.70;;;39.70;48.70;;;;;;5034015;28;20448;-77
2022/05/09 11:01:08;;;;;;;4.37;3.57;;;40.70;48.60;;;;;;5034311;28;20550;-78
2022/05/09 11:03:37;;;;;;;5.50;3.63;;;41.20;49.80;;;;;;5035700;28;20772;-79
2022/05/09 11:06:29;;;;;;;4.77;3.23;;;42.50;47.00;;;;;;5034247;28;20519;-77
2022/05/09 11:09:24;;;;;;;6.47;3.57;;;42.90;48.80;;;;;;5033616;28;20528;-77
2022/05/09 11:12:09;;;;;;;5.13;3.53;;;43.40;47.10;;;;;;5034296;28;20530;-76
2022/05/09 11:14:48;;;;;;;6.87;3.63;;;43.20;46.10;;;;;;5033613;28;20903;-77
2022/05/09 11:17:31;;;;;;;6.77;4.27;;;40.70;99.90;;;;;;5033693;28;20457;-78
2022/05/09 11:20:09;;;;;;;6.20;3.50;;;37.90;99.90;;;;;;5032625;28;20444;-77
2022/05/09 11:22:43;;;;;;;7.13;4.43;;;37.20;99.90;;;;;;5031431;28;20548;-77
2022/05/09 11:25:41;;;;;;;5.47;4.00;;;36.50;99.90;;;;;;5016867;28;20448;-78
2022/05/09 11:28:20;;;;;;;5.73;3.70;;;35.70;99.90;;;;;;5033241;28;20515;-77
2022/05/09 11:30:52;;;;;;;4.50;3.40;;;36.90;99.90;;;;;;5031108;28;20477;-76
2022/05/09 11:33:44;;;;;;;4.73;3.70;;;38.30;99.90;;;;;;5018370;28;20528;-76
2022/05/09 11:36:26;;;;;;;6.57;4.27;;;39.50;99.90;;;;;;5034549;28;20457;-76
2022/05/09 11:39:02;;;;;;;6.00;3.60;;;39.80;99.90;;;;;;5037553;28;20518;-79
2022/05/09 11:41:36;;;;;;;3.70;2.77;;;41.40;99.90;;;;;;5028859;28;20529;-76
2022/05/09 11:44:17;;;;;;;5.10;2.77;;;43.20;99.90;;;;;;5034891;28;20454;-80
2022/05/09 11:47:09;;;;;;;4.43;3.23;;;42.90;99.90;;;;;;5042823;28;20459;-77
2022/05/09 11:50:10;;;;;;;5.07;3.30;;;42.40;99.90;;;;;;5049982;28;20484;-80
2022/05/09 11:52:42;;;;;;;5.93;3.40;;;42.10;99.90;;;;;;5034806;28;20490;-79
2022/05/09 11:55:13;;;;;;;4.90;3.20;;;42.20;99.90;;;;;;5040627;28;20557;-79
2022/05/09 11:57:43;;;;;;;4.13;3.00;;;42.60;99.90;;;;;;5037352;28;20464;-79
2022/05/09 12:00:33;;;;;;;4.57;3.23;;;41.40;99.90;;;;;;5035084;28;20456;-78
2022/05/09 12:03:05;;;;;;;3.67;2.63;;;39.90;99.90;;;;;;5036564;28;20945;-79
2022/05/09 12:05:44;;;;;;;5.00;4.03;;;40.70;99.90;;;;;;5038435;28;20479;-78
2022/05/09 12:08:15;;;;;;;4.40;3.10;;;39.60;99.90;;;;;;5031416;28;20499;-78
2022/05/09 12:10:43;;;;;;;4.57;3.20;;;38.90;99.90;;;;;;5033412;28;20540;-79
2022/05/09 12:13:15;;;;;;;4.43;3.13;;;38.00;99.90;;;;;;5037260;28;20902;-79
2022/05/09 12:16:00;;;;;;;5.53;3.40;;;35.60;99.90;;;;;;5038540;28;20483;-80
2022/05/09 12:18:31;;;;;;;6.63;3.90;;;34.50;99.90;;;;;;5037335;28;20472;-80
2022/05/09 12:21:14;;;;;;;3.67;2.90;;;35.40;99.90;;;;;;5037821;28;20538;-77
2022/05/09 12:24:27;;;;;;;5.00;3.27;;;38.30;99.90;;;;;;5048727;28;20889;-78
2022/05/09 12:26:54;;;;;;;7.50;3.20;;;39.30;99.90;;;;;;5029214;28;20463;-80
2022/05/09 12:29:52;;;;;;;4.90;3.20;;;38.70;99.90;;;;;;5049361;28;20952;-79
2022/05/09 12:32:21;;;;;;;5.40;2.93;;;36.70;99.90;;;;;;5050686;28;20483;-79
2022/05/09 12:34:49;;;;;;;4.80;3.13;;;35.00;99.90;;;;;;5035460;28;20882;-78
2022/05/09 12:37:22;;;;;;;4.17;3.50;;;35.90;99.90;;;;;;5037767;28;20452;-79
2022/05/09 12:39:52;;;;;;;6.13;3.60;;;35.90;99.90;;;;;;5037107;28;20453;-77
2022/05/09 12:42:32;;;;;;;7.77;4.13;;;36.90;99.90;;;;;;5036700;28;20515;-78
2022/05/09 12:45:04;;;;;;;4.33;2.77;;;39.40;99.90;;;;;;5034321;28;20472;-80
2022/05/09 12:47:35;;;;;;;3.90;2.60;;;39.70;99.90;;;;;;5034175;28;20547;-80
2022/05/09 12:50:08;;;;;;;3.93;3.33;;;42.60;99.90;;;;;;5047183;28;20491;-79
2022/05/09 12:52:38;;;;;;;4.60;2.73;;;43.20;99.90;;;;;;5048492;28;20457;-80
2022/05/09 12:57:50;;;;;;;3.70;2.80;;;44.80;99.90;;;;;;5035784;28;20495;-80
2022/05/09 13:00:21;;;;;;;5.00;2.23;;;45.50;99.90;;;;;;5035675;28;20547;-84
2022/05/09 13:02:48;;;;;;;3.10;2.40;;;45.70;99.90;;;;;;5039626;28;20445;-84
2022/05/09 13:05:18;;;;;;;3.33;2.17;;;45.70;99.90;;;;;;5038899;28;20507;-83
2022/05/09 13:07:59;;;;;;;6.50;2.63;;;44.70;99.90;;;;;;5040269;28;20961;-85
2022/05/09 13:10:26;;;;;;;5.23;2.63;;;43.50;99.90;;;;;;5036835;28;20953;-82
2022/05/09 13:12:58;;;;;;;4.73;2.57;;;39.60;99.90;;;;;;5039423;28;20456;-83
2022/05/09 13:15:27;;;;;;;4.90;2.90;;;39.00;99.90;;;;;;5040243;28;20488;-83
2022/05/09 13:17:57;;;;;;;3.97;2.90;;;40.90;99.90;;;;;;5040652;28;20471;-83